»·PEaware :: N112PC KCYS-KAPA

N112PC :: KCYS-KAPA

FLIGHT INFORMATION

Flight Status: Arrived
Operator: Privately registered:
United States
More flights under this callsign
Pilot: Gabor H. (24209)
Aircraft: PILATUS PC-12 EAGLE
(PC12)
More flights by this aircraft type
Origin: KCYS Cheyenne
United States
Destination: KAPA Centennial
United States
More flights between these airports :: More routes between these airports
Route: CYS V81 BJC
File this flight plan on PilotEdge
Remarks:
Altitude:
(Current/Filed)
15,000ft
Speed:
(Current/Filed)
245kts
Departed: 07-Jun-19 09:54 AM
Arrived: 07-Jun-19 10:24 AM
Distance/Time
Traveled:
95nm/0:30
Distance/Time
To Go:
Arrived

Flight Plot

Page will automatically refresh every two minutes.

Flight plan parsing failed; only flown route is shown


Map Options




Map Legend


Flown Route
Filed Route
Departure Airport
Arrival Airport
Navaid (VOR, NDB)
Fix

Horizontal Profiles

Position Reports

Time Latitude Longitude Heading Altitude Ground
Speed
07-Jun-19 09:33 41.151626 -104.817719 269 6159ft 0kts
07-Jun-19 09:34 41.151626 -104.817719 269 6159ft 0kts
07-Jun-19 09:35 41.151626 -104.817719 269 6159ft 0kts
07-Jun-19 09:36 41.151626 -104.817719 269 6159ft 0kts
07-Jun-19 09:37 41.151626 -104.817719 269 6159ft 0kts
07-Jun-19 09:38 41.151626 -104.817719 269 6159ft 0kts
07-Jun-19 09:39 41.151626 -104.817719 269 6159ft 0kts
07-Jun-19 09:40 41.151626 -104.817719 269 6159ft 0kts
07-Jun-19 09:41 41.151626 -104.817719 269 6159ft 0kts
07-Jun-19 09:42 41.151626 -104.817719 269 6159ft 0kts
07-Jun-19 09:43 41.151626 -104.817719 269 6159ft 0kts
07-Jun-19 09:44 41.151626 -104.817719 269 6159ft 0kts
07-Jun-19 09:45 41.151626 -104.817719 269 6159ft 0kts
07-Jun-19 09:46 41.151626 -104.817720 269 6159ft 0kts
07-Jun-19 09:47 41.152489 -104.817131 351 6159ft 21kts
07-Jun-19 09:48 41.154780 -104.813549 92 6159ft 25kts
07-Jun-19 09:49 41.153914 -104.800219 96 6159ft 38kts
07-Jun-19 09:50 41.153358 -104.792199 94 6159ft 13kts
07-Jun-19 09:51 41.153319 -104.787926 17 6159ft 2kts
07-Jun-19 09:52 41.153471 -104.787885 9 6159ft 3kts
07-Jun-19 09:53 41.155485 -104.802964 275 6319ft 119kts
07-Jun-19 09:54 41.138385 -104.833049 156 7603ft 155kts
07-Jun-19 09:55 41.097231 -104.819498 189 9169ft 160kts
07-Jun-19 09:56 41.052290 -104.828564 193 10680ft 165kts
07-Jun-19 09:57 41.005743 -104.839492 194 12206ft 186kts
07-Jun-19 09:58 40.948685 -104.852966 193 13733ft 230kts
07-Jun-19 09:59 40.884275 -104.867832 193 14937ft 245kts
07-Jun-19 10:00 40.814098 -104.886319 194 15008ft 264kts
07-Jun-19 10:01 40.741341 -104.906782 194 14994ft 268kts
07-Jun-19 10:02 40.668105 -104.927595 195 14983ft 269kts
07-Jun-19 10:03 40.595015 -104.948371 194 14982ft 268kts
07-Jun-19 10:04 40.522060 -104.968841 194 14969ft 268kts
07-Jun-19 10:05 40.449120 -104.989255 194 14969ft 268kts
07-Jun-19 10:06 40.375803 -105.009638 194 14962ft 270kts
07-Jun-19 10:07 40.302665 -105.030168 194 14974ft 268kts
07-Jun-19 10:08 40.229586 -105.050762 194 14978ft 266kts
07-Jun-19 10:09 40.157919 -105.070695 194 14972ft 250kts
07-Jun-19 10:11 40.092795 -105.088809 194 14904ft 234kts
07-Jun-19 10:12 40.031150 -105.105972 194 13421ft 213kts
07-Jun-19 10:13 39.973711 -105.121923 194 11896ft 213kts
07-Jun-19 10:14 39.914107 -105.131583 166 10213ft 223kts
07-Jun-19 10:15 39.861707 -105.095113 150 9039ft 210kts
07-Jun-19 10:16 39.824800 -105.039517 122 8628ft 207kts
07-Jun-19 10:17 39.795929 -104.981122 131 7604ft 177kts
07-Jun-19 10:18 39.765867 -104.938294 133 7508ft 162kts
07-Jun-19 10:19 39.732241 -104.898018 156 7311ft 163kts
07-Jun-19 10:20 39.693135 -104.869496 147 7294ft 160kts
07-Jun-19 10:21 39.654581 -104.854273 178 7373ft 116kts
07-Jun-19 10:22 39.623536 -104.853608 178 7124ft 115kts
07-Jun-19 10:23 39.594296 -104.851980 177 6282ft 98kts
07-Jun-19 10:24 39.576145 -104.851189 176 5886ft 33kts
07-Jun-19 10:25 39.574340 -104.849881 91 5886ft 0kts
07-Jun-19 10:26 39.577722 -104.849746 352 5886ft 11kts
07-Jun-19 10:27 39.580760 -104.848771 91 5886ft 18kts
07-Jun-19 10:28 39.580327 -104.847509 177 5886ft 0kts
07-Jun-19 10:29 39.580327 -104.847509 177 5886ft 0kts
07-Jun-19 10:30 39.580327 -104.847509 177 5886ft 0kts
07-Jun-19 10:30 39.580327 -104.847509 177 5886ft 0kts
07-Jun-19 10:32 39.580327 -104.847509 177 5886ft 0kts
07-Jun-19 10:33 39.580327 -104.847509 177 5886ft 0kts
07-Jun-19 10:33 39.580327 -104.847509 177 5886ft 0kts
07-Jun-19 10:35 39.580327 -104.847509 177 5886ft 0kts
07-Jun-19 10:36 39.580327 -104.847509 177 5886ft 0kts
07-Jun-19 10:36 39.580327 -104.847509 177 5886ft 0kts
07-Jun-19 10:37 39.580327 -104.847509 177 5886ft 0kts

Navigation Log

Ident Type
Flight plan parsing failed, navigation log unavailable